Time;durP1;ratioP1;P1;durP2;ratioP2;P2;SDS_P1;SDS_P2;PMS_P1;PMS_P2;Temp;Humidity;BMP_temperature;BMP_pressure;BME280_temperature;BME280_humidity;BME280_pressure;Samples;Min_cycle;Max_cycle;Signal;HPM_P1;HPM_P2
2021/11/14 00:01:43;;;;;;;;;;;7.70;99.90;;;;;;8361764;28;20418;-65
2021/11/14 00:05:44;;;;;;;;;;;7.50;99.90;;;;;;8361269;28;19980;-65
2021/11/14 00:09:45;;;;;;;;;;;7.50;99.90;;;;;;8361155;28;20429;-64
2021/11/14 00:13:46;;;;;;;;;;;7.30;99.90;;;;;;8361432;28;20289;-64
2021/11/14 00:17:46;;;;;;;;;;;7.30;99.90;;;;;;8361232;28;19935;-64
2021/11/14 00:21:47;;;;;;;;;;;7.40;99.90;;;;;;8361059;28;19917;-64
2021/11/14 00:25:47;;;;;;;;;;;7.40;99.90;;;;;;8395863;22;20030;-65
2021/11/14 00:29:49;;;;;;;;;;;7.20;99.90;;;;;;8393318;28;19912;-64
2021/11/14 00:33:50;;;;;;;;;;;7.30;99.90;;;;;;8394539;28;19991;-65
2021/11/14 00:37:51;;;;;;;;;;;7.40;99.90;;;;;;8393908;28;19913;-65
2021/11/14 00:41:52;;;;;;;;;;;7.60;99.90;;;;;;8394326;28;19909;-65
2021/11/14 00:45:52;;;;;;;;;;;7.30;99.90;;;;;;8393951;28;19908;-64
2021/11/14 00:49:53;;;;;;;;;;;7.10;99.90;;;;;;8393431;28;19978;-65
2021/11/14 00:53:54;;;;;;;;;;;7.20;99.90;;;;;;8375794;28;19915;-64
2021/11/14 00:57:54;;;;;;;;;;;7.20;99.90;;;;;;8393959;28;20014;-65
2021/11/14 01:01:55;;;;;;;;;;;7.20;99.90;;;;;;8375588;28;19915;-64
2021/11/14 01:05:55;;;;;;;;;;;7.10;99.90;;;;;;8393653;28;19916;-65
2021/11/14 01:09:56;;;;;;;;;;;7.10;99.90;;;;;;8393376;28;19909;-64
2021/11/14 01:13:56;;;;;;;;;;;7.10;99.90;;;;;;8393594;28;19915;-65
2021/11/14 01:17:57;;;;;;;;;;;7.00;99.90;;;;;;8393371;28;19969;-65
2021/11/14 01:21:57;;;;;;;;;;;7.10;99.90;;;;;;8392635;28;20381;-65
2021/11/14 01:25:58;;;;;;;;;;;7.10;99.90;;;;;;8393318;28;19921;-64
2021/11/14 01:29:58;;;;;;;;;;;7.10;99.90;;;;;;8392973;28;20263;-65
2021/11/14 01:33:59;;;;;;;;;;;7.00;99.90;;;;;;8393164;28;20324;-64
2021/11/14 01:38:00;;;;;;;;;;;6.80;99.90;;;;;;8392834;28;19966;-65
2021/11/14 01:42:00;;;;;;;;;;;6.90;99.90;;;;;;8392903;28;19919;-64
2021/11/14 01:46:01;;;;;;;;;;;7.00;99.90;;;;;;8394985;28;19969;-64
2021/11/14 01:50:03;;;;;;;;;;;6.90;99.90;;;;;;8398457;28;20339;-64
2021/11/14 01:54:04;;;;;;;;;;;6.90;99.90;;;;;;8398714;28;19912;-65
2021/11/14 01:58:04;;;;;;;;;;;6.70;99.90;;;;;;8398442;28;19912;-64
2021/11/14 02:02:05;;;;;;;;;;;6.70;99.90;;;;;;8398376;28;19912;-64
2021/11/14 02:06:07;;;;;;;;;;;6.60;99.90;;;;;;8398533;28;20332;-64
2021/11/14 02:10:08;;;;;;;;;;;6.70;99.90;;;;;;8398150;28;20002;-64
2021/11/14 02:14:09;;;;;;;;;;;6.80;99.90;;;;;;8398181;28;19916;-65
2021/11/14 02:18:11;;;;;;;;;;;6.80;99.90;;;;;;8397928;28;19946;-64
2021/11/14 02:22:12;;;;;;;;;;;6.90;99.90;;;;;;8397751;28;19912;-65
2021/11/14 02:26:12;;;;;;;;;;;7.10;99.90;;;;;;8397859;28;20649;-64
2021/11/14 02:30:13;;;;;;;;;;;7.00;99.90;;;;;;8379563;28;19908;-65
2021/11/14 02:34:14;;;;;;;;;;;7.10;99.90;;;;;;8397634;28;19954;-64
2021/11/14 02:38:15;;;;;;;;;;;7.10;99.90;;;;;;8397323;28;20271;-65
2021/11/14 02:42:16;;;;;;;;;;;7.10;99.90;;;;;;8379874;28;19920;-65
2021/11/14 02:46:17;;;;;;;;;;;7.30;99.90;;;;;;8397504;28;19908;-65
2021/11/14 02:50:19;;;;;;;;;;;7.10;99.90;;;;;;8396571;28;20386;-64
2021/11/14 02:54:20;;;;;;;;;;;7.20;99.90;;;;;;8396849;28;19954;-65
2021/11/14 02:58:21;;;;;;;;;;;7.20;99.90;;;;;;8396665;28;19912;-64
2021/11/14 03:02:22;;;;;;;;;;;7.10;99.90;;;;;;8396521;28;19951;-65
2021/11/14 03:06:23;;;;;;;;;;;7.00;99.90;;;;;;8396574;28;19909;-65
2021/11/14 03:10:27;;;;;;;;;;;7.10;99.90;;;;;;8396139;28;20333;-65
2021/11/14 03:14:28;;;;;;;;;;;7.10;99.90;;;;;;8396294;28;20422;-64
2021/11/14 03:18:28;;;;;;;;;;;7.30;99.90;;;;;;8395561;28;19924;-64
2021/11/14 03:22:29;;;;;;;;;;;7.30;99.90;;;;;;8395959;28;20331;-64
2021/11/14 03:26:29;;;;;;;;;;;7.30;99.90;;;;;;8395734;28;20267;-65
2021/11/14 03:30:33;;;;;;;;;;;7.30;99.90;;;;;;8395477;28;20375;-65
2021/11/14 03:34:33;;;;;;;;;;;7.30;99.90;;;;;;8377489;28;19908;-65
2021/11/14 03:38:40;;;;;;;;;;;7.20;99.90;;;;;;8377264;28;19956;-65
2021/11/14 03:42:41;;;;;;;;;;;7.20;99.90;;;;;;8395247;28;19909;-64
2021/11/14 03:46:41;;;;;;;;;;;7.10;99.90;;;;;;8395307;28;19991;-64
2021/11/14 03:50:42;;;;;;;;;;;7.10;99.90;;;;;;8394623;28;19909;-65
2021/11/14 03:54:42;;;;;;;;;;;7.10;99.90;;;;;;8376944;28;19912;-64
2021/11/14 03:58:43;;;;;;;;;;;7.20;99.90;;;;;;8394508;28;19913;-64
2021/11/14 04:02:43;;;;;;;;;;;7.30;99.90;;;;;;8376858;28;20401;-65
2021/11/14 04:06:44;;;;;;;;;;;7.30;99.90;;;;;;8394708;28;19909;-64
2021/11/14 04:10:45;;;;;;;;;;;7.30;99.90;;;;;;8375734;28;19912;-64
2021/11/14 04:14:46;;;;;;;;;;;7.10;99.90;;;;;;8394572;28;19909;-64
2021/11/14 04:18:46;;;;;;;;;;;7.10;99.90;;;;;;8376449;28;20007;-65
2021/11/14 04:22:46;;;;;;;;;;;7.10;99.90;;;;;;8376462;28;19909;-65
2021/11/14 04:26:47;;;;;;;;;;;7.10;99.90;;;;;;8394073;28;19916;-64
2021/11/14 04:30:48;;;;;;;;;;;7.20;99.90;;;;;;8394179;28;20449;-64
2021/11/14 04:34:49;;;;;;;;;;;7.10;99.90;;;;;;8393484;28;20073;-64
2021/11/14 04:38:49;;;;;;;;;;;7.10;99.90;;;;;;8393657;28;19943;-65
2021/11/14 04:42:50;;;;;;;;;;;7.00;99.90;;;;;;8376008;28;19908;-64
2021/11/14 04:46:51;;;;;;;;;;;6.90;99.90;;;;;;8393904;28;19908;-64
2021/11/14 04:50:52;;;;;;;;;;;6.90;99.90;;;;;;8393233;28;19957;-64
2021/11/14 04:54:52;;;;;;;;;;;6.90;99.90;;;;;;8393670;28;19909;-64
2021/11/14 04:58:53;;;;;;;;;;;6.80;99.90;;;;;;8393607;28;19932;-64
2021/11/14 05:02:54;;;;;;;;;;;6.90;99.90;;;;;;8393610;28;19913;-64
2021/11/14 05:06:54;;;;;;;;;;;6.90;99.90;;;;;;8393557;28;19947;-64
2021/11/14 05:10:55;;;;;;;;;;;7.00;99.90;;;;;;8394062;28;19932;-64
2021/11/14 05:14:55;;;;;;;;;;;7.00;99.90;;;;;;8393494;28;19909;-64
2021/11/14 05:18:56;;;;;;;;;;;6.90;99.90;;;;;;8393166;28;19913;-65
2021/11/14 05:22:56;;;;;;;;;;;7.00;99.90;;;;;;8398269;28;19909;-65
2021/11/14 05:26:58;;;;;;;;;;;6.90;99.90;;;;;;8399391;28;20443;-65
2021/11/14 05:30:59;;;;;;;;;;;6.90;99.90;;;;;;8399642;28;20405;-64
2021/11/14 05:34:59;;;;;;;;;;;7.00;99.90;;;;;;8399421;28;19908;-64
2021/11/14 05:39:01;;;;;;;;;;;7.00;99.90;;;;;;8399513;28;19913;-64
2021/11/14 05:43:02;;;;;;;;;;;6.90;99.90;;;;;;8381321;28;19915;-64
2021/11/14 05:47:03;;;;;;;;;;;7.00;99.90;;;;;;8398840;28;20375;-64
2021/11/14 05:51:03;;;;;;;;;;;7.20;99.90;;;;;;8381428;28;20329;-65
2021/11/14 05:55:05;;;;;;;;;;;7.10;99.90;;;;;;8398577;28;19932;-65
2021/11/14 05:59:30;;;;;;;;;;;7.10;99.90;;;;;;8398211;28;19913;-64
2021/11/14 06:03:35;;;;;;;;;;;7.00;99.90;;;;;;8377332;28;19921;-64
2021/11/14 06:07:36;;;;;;;;;;;7.00;99.90;;;;;;8381868;28;19913;-64
2021/11/14 06:11:37;;;;;;;;;;;6.90;99.90;;;;;;8380654;28;19912;-65
2021/11/14 06:15:37;;;;;;;;;;;6.90;99.90;;;;;;8384445;28;19912;-65
2021/11/14 06:19:38;;;;;;;;;;;6.90;99.90;;;;;;8393103;28;19927;-65
2021/11/14 06:23:38;;;;;;;;;;;6.90;99.90;;;;;;8370666;28;19999;-65
2021/11/14 06:27:39;;;;;;;;;;;6.90;99.90;;;;;;8416042;22;19925;-65
2021/11/14 06:31:40;;;;;;;;;;;7.00;99.90;;;;;;8394288;28;19912;-65
2021/11/14 06:35:40;;;;;;;;;;;7.00;99.90;;;;;;8396857;28;20367;-64
2021/11/14 06:39:41;;;;;;;;;;;7.00;99.90;;;;;;8397222;28;20437;-64
2021/11/14 06:43:42;;;;;;;;;;;6.90;99.90;;;;;;8396497;28;19919;-64
2021/11/14 06:47:43;;;;;;;;;;;7.10;99.90;;;;;;8387250;28;19913;-64
2021/11/14 06:51:43;;;;;;;;;;;7.10;99.90;;;;;;8380679;28;19962;-64
2021/11/14 06:55:44;;;;;;;;;;;7.10;99.90;;;;;;8378572;28;19928;-64
2021/11/14 06:59:44;;;;;;;;;;;7.00;99.90;;;;;;8396152;28;19919;-64
2021/11/14 07:03:45;;;;;;;;;;;7.10;99.90;;;;;;8396630;28;19912;-64
2021/11/14 07:07:46;;;;;;;;;;;7.10;99.90;;;;;;8389652;28;20007;-64
2021/11/14 07:11:46;;;;;;;;;;;7.10;99.90;;;;;;8378789;28;20367;-64
2021/11/14 07:15:47;;;;;;;;;;;7.10;99.90;;;;;;8389083;28;19921;-64
2021/11/14 07:19:48;;;;;;;;;;;7.20;99.90;;;;;;8393762;28;19974;-64
2021/11/14 07:23:49;;;;;;;;;;;7.20;99.90;;;;;;8394689;28;20050;-64
2021/11/14 07:27:52;;;;;;;;;;;7.10;99.90;;;;;;8390376;28;19916;-64
2021/11/14 07:31:52;;;;;;;;;;;6.90;99.90;;;;;;8384031;28;19912;-64
2021/11/14 07:35:53;;;;;;;;;;;6.80;99.90;;;;;;8392671;28;19916;-64
2021/11/14 07:39:53;;;;;;;;;;;6.80;99.90;;;;;;8393648;28;20052;-64
2021/11/14 07:43:55;;;;;;;;;;;6.90;99.90;;;;;;8392278;28;19919;-64
2021/11/14 07:47:56;;;;;;;;;;;7.00;99.90;;;;;;8393154;28;19948;-64
2021/11/14 07:51:56;;;;;;;;;;;7.20;99.90;;;;;;8392074;28;19916;-64
2021/11/14 07:55:57;;;;;;;;;;;7.30;99.90;;;;;;8394394;28;19913;-64
2021/11/14 07:59:58;;;;;;;;;;;7.40;99.90;;;;;;8394376;28;19916;-64
2021/11/14 08:03:58;;;;;;;;;;;7.60;99.90;;;;;;8394258;28;20449;-65
2021/11/14 08:07:59;;;;;;;;;;;7.70;99.90;;;;;;8384984;28;20396;-65
2021/11/14 08:11:59;;;;;;;;;;;8.00;99.90;;;;;;8388675;28;19912;-64
2021/11/14 08:16:00;;;;;;;;;;;8.10;99.90;;;;;;8382365;28;19924;-64
2021/11/14 08:20:01;;;;;;;;;;;8.30;99.90;;;;;;8388572;28;19959;-65
2021/11/14 08:24:01;;;;;;;;;;;8.50;99.90;;;;;;8391765;28;19912;-65
2021/11/14 08:28:02;;;;;;;;;;;9.10;99.90;;;;;;8390488;28;19916;-65
2021/11/14 08:32:03;;;;;;;;;;;9.90;99.90;;;;;;8388304;28;19917;-64
2021/11/14 08:36:03;;;;;;;;;;;10.40;99.90;;;;;;8392013;28;19913;-65
2021/11/14 08:40:05;;;;;;;;;;;10.50;99.90;;;;;;8392499;28;19964;-64
2021/11/14 08:44:05;;;;;;;;;;;10.40;99.90;;;;;;8391438;28;19920;-65
2021/11/14 08:48:06;;;;;;;;;;;10.60;99.90;;;;;;8392361;28;19916;-65
2021/11/14 08:52:07;;;;;;;;;;;10.70;99.90;;;;;;8390215;28;19943;-64
2021/11/14 08:56:08;;;;;;;;;;;11.00;99.90;;;;;;8380772;28;19913;-64
2021/11/14 09:00:09;;;;;;;;;;;11.10;99.90;;;;;;8382813;28;19940;-65
2021/11/14 09:04:09;;;;;;;;;;;11.20;99.90;;;;;;8390587;28;19917;-65
2021/11/14 09:08:10;;;;;;;;;;;11.40;99.90;;;;;;8398454;28;19921;-65
2021/11/14 09:12:10;;;;;;;;;;;11.20;99.90;;;;;;8397509;28;19933;-64
2021/11/14 09:16:11;;;;;;;;;;;10.70;99.90;;;;;;8399290;28;20374;-64
2021/11/14 09:20:11;;;;;;;;;;;10.80;99.90;;;;;;8398302;28;19920;-63
2021/11/14 09:24:12;;;;;;;;;;;10.70;99.90;;;;;;8399248;28;19912;-64
2021/11/14 09:28:14;;;;;;;;;;;10.50;99.90;;;;;;8397726;28;19920;-64
2021/11/14 09:32:15;;;;;;;;;;;10.20;99.90;;;;;;8397822;28;20393;-64
2021/11/14 09:36:15;;;;;;;;;;;10.20;99.90;;;;;;8397333;28;19965;-65
2021/11/14 09:40:16;;;;;;;;;;;10.20;99.90;;;;;;8382670;28;19917;-64
2021/11/14 09:44:18;;;;;;;;;;;10.10;99.90;;;;;;8397880;28;19913;-63
2021/11/14 09:48:19;;;;;;;;;;;10.10;99.90;;;;;;8395590;28;19912;-64
2021/11/14 09:52:20;;;;;;;;;;;10.00;99.90;;;;;;8394796;28;19912;-63
2021/11/14 09:56:21;;;;;;;;;;;10.00;99.90;;;;;;8404239;28;19913;-64
2021/11/14 10:00:26;;;;;;;;;;;9.80;99.90;;;;;;8413783;28;19923;-64
2021/11/14 10:04:27;;;;;;;;;;;9.50;99.90;;;;;;8407738;28;19912;-63
2021/11/14 10:08:34;;;;;;;;;;;9.40;99.90;;;;;;8427253;28;19916;-64
2021/11/14 10:12:38;;;;;;;;;;;9.30;99.90;;;;;;8426511;28;19912;-63
2021/11/14 10:16:39;;;;;;;;;;;9.20;99.90;;;;;;8428371;28;19920;-63
2021/11/14 10:20:40;;;;;;;;;;;9.10;99.90;;;;;;8424164;28;19942;-63
2021/11/14 10:24:41;;;;;;;;;;;9.00;99.90;;;;;;8429993;28;19912;-63
2021/11/14 10:28:45;;;;;;;;;;;9.00;99.90;;;;;;8396166;28;19916;-63
2021/11/14 10:32:45;;;;;;;;;;;8.90;99.90;;;;;;8373692;28;20325;-64
2021/11/14 10:36:54;;;;;;;;;;;8.80;99.90;;;;;;8387517;28;19919;-64
2021/11/14 10:40:57;;;;;;;;;;;8.90;99.90;;;;;;8394382;28;20272;-64
2021/11/14 10:44:59;;;;;;;;;;;8.90;99.90;;;;;;8394203;28;19920;-64
2021/11/14 10:49:03;;;;;;;;;;;8.90;99.90;;;;;;8394352;28;19908;-64
2021/11/14 10:53:05;;;;;;;;;;;8.90;99.90;;;;;;8377250;28;19948;-64
2021/11/14 10:57:06;;;;;;;;;;;8.90;99.90;;;;;;8394986;28;20398;-64
2021/11/14 11:01:09;;;;;;;;;;;8.90;99.90;;;;;;8395519;28;20015;-63
2021/11/14 11:05:11;;;;;;;;;;;8.90;99.90;;;;;;8395626;28;19995;-64
2021/11/14 11:09:12;;;;;;;;;;;8.90;99.90;;;;;;8395255;28;19909;-64
2021/11/14 11:13:33;;;;;;;;;;;9.10;99.90;;;;;;8395605;28;20386;-64
2021/11/14 11:17:44;;;;;;;;;;;9.10;99.90;;;;;;8394886;28;19908;-64
2021/11/14 11:21:46;;;;;;;;;;;9.20;99.90;;;;;;8394308;28;20282;-64
2021/11/14 11:25:51;;;;;;;;;;;9.10;99.90;;;;;;8394805;28;19931;-64
2021/11/14 11:29:52;;;;;;;;;;;9.20;99.90;;;;;;8394517;28;19908;-63
2021/11/14 11:33:55;;;;;;;;;;;9.20;99.90;;;;;;8378590;28;19923;-64
2021/11/14 11:37:56;;;;;;;;;;;9.30;99.90;;;;;;8379736;28;19918;-63
2021/11/14 11:41:59;;;;;;;;;;;9.20;99.90;;;;;;8373295;28;19913;-64
2021/11/14 11:46:01;;;;;;;;;;;9.10;99.90;;;;;;8361834;28;19948;-64
2021/11/14 11:50:02;;;;;;;;;;;9.30;99.90;;;;;;8360092;28;19959;-64
2021/11/14 11:54:02;;;;;;;;;;;9.30;99.90;;;;;;8361031;28;19999;-64
2021/11/14 11:58:15;;;;;;;;;;;9.40;99.90;;;;;;8375882;28;20343;-64
2021/11/14 12:02:19;;;;;;;;;;;9.40;99.90;;;;;;8393376;28;19919;-64
2021/11/14 12:06:21;;;;;;;;;;;9.40;99.90;;;;;;8394434;28;19916;-64
2021/11/14 12:10:23;;;;;;;;;;;9.30;99.90;;;;;;8393356;28;19970;-64
2021/11/14 12:14:32;;;;;;;;;;;9.20;99.90;;;;;;8392644;28;19908;-64
2021/11/14 12:18:42;;;;;;;;;;;9.10;99.90;;;;;;8391404;28;19912;-63
2021/11/14 12:22:44;;;;;;;;;;;9.10;99.90;;;;;;8393234;28;19908;-64
2021/11/14 12:26:45;;;;;;;;;;;9.20;99.90;;;;;;8424222;22;19928;-64
2021/11/14 12:31:12;;;;;;;;;;;9.30;99.90;;;;;;8391109;28;19916;-64
2021/11/14 12:35:17;;;;;;;;;;;9.30;99.90;;;;;;8393030;28;19923;-64
2021/11/14 12:39:20;;;;;;;;;;;9.60;99.90;;;;;;8392127;28;19912;-64
2021/11/14 12:43:24;;;;;;;;;;;9.70;99.90;;;;;;8374392;28;22322;-64
2021/11/14 12:47:29;;;;;;;;;;;9.60;99.90;;;;;;8392756;28;19909;-64
2021/11/14 12:51:31;;;;;;;;;;;9.50;99.90;;;;;;8391990;28;20374;-63
2021/11/14 12:55:31;;;;;;;;;;;9.10;99.90;;;;;;8393006;28;19915;-64
2021/11/14 12:59:32;;;;;;;;;;;8.80;99.90;;;;;;8400866;28;20366;-64
2021/11/14 13:03:36;;;;;;;;;;;8.80;99.90;;;;;;8426270;28;19915;-64
2021/11/14 13:07:36;;;;;;;;;;;8.70;99.90;;;;;;8426387;28;20444;-64
2021/11/14 13:11:38;;;;;;;;;;;8.70;99.90;;;;;;8425792;28;19909;-64
2021/11/14 13:15:39;;;;;;;;;;;8.60;99.90;;;;;;8425642;28;19908;-64
2021/11/14 13:19:40;;;;;;;;;;;8.50;99.90;;;;;;8425530;28;20390;-63
2021/11/14 13:23:52;;;;;;;;;;;8.40;99.90;;;;;;8425332;28;19916;-63
2021/11/14 13:27:53;;;;;;;;;;;8.30;99.90;;;;;;8425079;28;19916;-63
2021/11/14 13:31:55;;;;;;;;;;;8.20;99.90;;;;;;8424853;28;19920;-63
2021/11/14 13:35:56;;;;;;;;;;;8.00;99.90;;;;;;8406781;28;19908;-64
2021/11/14 13:40:00;;;;;;;;;;;8.10;99.90;;;;;;8405449;28;19919;-64
2021/11/14 13:44:02;;;;;;;;;;;8.10;99.90;;;;;;8429468;28;19912;-64
2021/11/14 13:48:06;;;;;;;;;;;8.20;99.90;;;;;;8429519;28;20285;-64
2021/11/14 13:52:09;;;;;;;;;;;8.20;99.90;;;;;;8429943;28;19914;-64
2021/11/14 13:56:09;;;;;;;;;;;8.20;99.90;;;;;;8430847;28;19994;-64
2021/11/14 14:00:16;;;;;;;;;;;8.10;99.90;;;;;;8408042;28;20309;-64
2021/11/14 14:04:17;;;;;;;;;;;8.00;99.90;;;;;;8411079;28;20366;-64
2021/11/14 14:08:24;;;;;;;;;;;8.10;99.90;;;;;;8415642;28;20062;-64
2021/11/14 14:12:25;;;;;;;;;;;8.20;99.90;;;;;;8426001;28;19912;-64
2021/11/14 14:16:27;;;;;;;;;;;8.10;99.90;;;;;;8426717;28;19912;-64
2021/11/14 14:20:28;;;;;;;;;;;8.10;99.90;;;;;;8419412;28;19923;-63
2021/11/14 14:24:29;;;;;;;;;;;8.00;99.90;;;;;;8392197;28;20150;-64
2021/11/14 14:28:30;;;;;;;;;;;8.00;99.90;;;;;;8416228;28;19927;-64
2021/11/14 14:32:31;;;;;;;;;;;7.90;99.90;;;;;;8380945;28;19913;-63
2021/11/14 14:36:31;;;;;;;;;;;7.90;99.90;;;;;;8401658;28;19939;-64
2021/11/14 14:40:37;;;;;;;;;;;7.70;99.90;;;;;;8390400;28;20598;-64
2021/11/14 14:44:37;;;;;;;;;;;7.80;99.90;;;;;;8412304;28;19971;-63
2021/11/14 14:48:40;;;;;;;;;;;7.80;99.90;;;;;;8408716;28;19916;-63
2021/11/14 14:52:44;;;;;;;;;;;7.90;99.90;;;;;;8390854;28;20008;-64
2021/11/14 14:56:49;;;;;;;;;;;7.90;99.90;;;;;;8407758;28;19916;-63
2021/11/14 15:00:50;;;;;;;;;;;7.90;99.90;;;;;;8405778;28;19916;-64
2021/11/14 15:04:50;;;;;;;;;;;8.00;99.90;;;;;;8387992;28;19923;-63
2021/11/14 15:08:51;;;;;;;;;;;7.90;99.90;;;;;;8405130;28;19920;-63
2021/11/14 15:12:54;;;;;;;;;;;7.90;99.90;;;;;;8406842;28;19912;-64
2021/11/14 15:16:55;;;;;;;;;;;8.00;99.90;;;;;;8420745;28;20553;-63
2021/11/14 15:20:55;;;;;;;;;;;8.00;99.90;;;;;;8383187;28;19917;-64
2021/11/14 15:24:57;;;;;;;;;;;7.90;99.90;;;;;;8376948;28;19920;-64
2021/11/14 15:28:57;;;;;;;;;;;7.90;99.90;;;;;;8375846;28;20275;-64
2021/11/14 15:32:58;;;;;;;;;;;8.00;99.90;;;;;;8384974;28;19916;-63
2021/11/14 15:36:58;;;;;;;;;;;8.00;99.90;;;;;;8407556;28;20259;-63
2021/11/14 15:41:02;;;;;;;;;;;7.90;99.90;;;;;;8406344;28;20386;-63
2021/11/14 15:45:03;;;;;;;;;;;7.70;99.90;;;;;;8407105;28;19912;-64
2021/11/14 15:49:05;;;;;;;;;;;7.60;99.90;;;;;;8406206;28;19923;-64
2021/11/14 15:53:06;;;;;;;;;;;7.70;99.90;;;;;;8410739;28;20263;-64
2021/11/14 15:57:07;;;;;;;;;;;7.60;99.90;;;;;;8383988;28;19916;-63
2021/11/14 16:01:08;;;;;;;;;;;7.70;99.90;;;;;;8407785;28;19920;-64
2021/11/14 16:05:09;;;;;;;;;;;7.60;99.90;;;;;;8410687;28;19917;-64
2021/11/14 16:09:11;;;;;;;;;;;7.60;99.90;;;;;;8400394;28;20297;-63
2021/11/14 16:13:12;;;;;;;;;;;7.60;99.90;;;;;;8389820;28;20704;-64
2021/11/14 16:17:13;;;;;;;;;;;7.60;99.90;;;;;;8415616;28;19920;-65
2021/11/14 16:21:16;;;;;;;;;;;7.60;99.90;;;;;;8385439;28;19915;-64
2021/11/14 16:25:17;;;;;;;;;;;7.70;99.90;;;;;;8422814;28;19961;-64
2021/11/14 16:29:23;;;;;;;;;;;7.70;99.90;;;;;;8407594;28;19920;-63
2021/11/14 16:33:23;;;;;;;;;;;7.70;99.90;;;;;;8409800;28;19916;-64
2021/11/14 16:37:24;;;;;;;;;;;7.70;99.90;;;;;;8416485;28;19919;-63
2021/11/14 16:41:26;;;;;;;;;;;7.60;99.90;;;;;;8409093;28;19955;-63
2021/11/14 16:45:27;;;;;;;;;;;7.60;99.90;;;;;;8411923;28;19948;-63
2021/11/14 16:49:28;;;;;;;;;;;7.60;99.90;;;;;;8389934;28;19916;-63
2021/11/14 16:53:28;;;;;;;;;;;7.50;99.90;;;;;;8419164;28;20348;-64
2021/11/14 16:57:29;;;;;;;;;;;7.50;99.90;;;;;;8422489;28;19958;-64
2021/11/14 17:01:30;;;;;;;;;;;7.50;99.90;;;;;;8421502;28;19916;-63
2021/11/14 17:05:30;;;;;;;;;;;7.50;99.90;;;;;;8418269;28;20294;-64
2021/11/14 17:09:31;;;;;;;;;;;7.40;99.90;;;;;;8419167;28;20365;-64
2021/11/14 17:13:31;;;;;;;;;;;7.40;99.90;;;;;;8412156;28;19923;-64
2021/11/14 17:17:32;;;;;;;;;;;7.50;99.90;;;;;;8408333;28;19918;-64
2021/11/14 17:21:33;;;;;;;;;;;7.50;99.90;;;;;;8423619;28;20701;-64
2021/11/14 17:25:33;;;;;;;;;;;7.50;99.90;;;;;;8413538;28;19912;-64
2021/11/14 17:29:34;;;;;;;;;;;7.50;99.90;;;;;;8414245;28;19918;-63
2021/11/14 17:33:35;;;;;;;;;;;7.40;99.90;;;;;;8432513;28;19920;-63
2021/11/14 17:37:36;;;;;;;;;;;7.30;99.90;;;;;;8432935;28;20408;-63
2021/11/14 17:41:37;;;;;;;;;;;7.30;99.90;;;;;;8423635;28;19923;-64
2021/11/14 17:45:38;;;;;;;;;;;7.40;99.90;;;;;;8388019;28;19913;-64
2021/11/14 17:49:38;;;;;;;;;;;7.30;99.90;;;;;;8399290;28;19923;-63
2021/11/14 17:53:39;;;;;;;;;;;7.30;99.90;;;;;;8410118;28;19916;-63
2021/11/14 17:57:39;;;;;;;;;;;7.30;99.90;;;;;;8406970;28;19913;-64
2021/11/14 18:01:40;;;;;;;;;;;7.20;99.90;;;;;;8408745;28;19939;-63
2021/11/14 18:05:41;;;;;;;;;;;7.20;99.90;;;;;;8392523;28;20375;-63
2021/11/14 18:09:43;;;;;;;;;;;7.30;99.90;;;;;;8409459;28;20026;-63
2021/11/14 18:13:43;;;;;;;;;;;7.40;99.90;;;;;;8412007;28;19916;-63
2021/11/14 18:17:44;;;;;;;;;;;7.40;99.90;;;;;;8387898;28;20413;-63
2021/11/14 18:21:46;;;;;;;;;;;7.40;99.90;;;;;;8408328;28;19928;-64
2021/11/14 18:25:46;;;;;;;;;;;7.40;99.90;;;;;;8412236;28;19979;-64
2021/11/14 18:29:47;;;;;;;;;;;7.20;99.90;;;;;;8408649;28;19923;-64
2021/11/14 18:33:48;;;;;;;;;;;7.30;99.90;;;;;;8390636;28;19931;-63
2021/11/14 18:37:52;;;;;;;;;;;7.30;99.90;;;;;;8408893;28;19908;-64
2021/11/14 18:41:53;;;;;;;;;;;7.20;99.90;;;;;;8409093;28;20029;-64
2021/11/14 18:45:54;;;;;;;;;;;7.20;99.90;;;;;;8390383;28;19973;-64
2021/11/14 18:49:55;;;;;;;;;;;7.20;99.90;;;;;;8407959;28;19943;-64
2021/11/14 18:53:55;;;;;;;;;;;7.30;99.90;;;;;;8418680;28;19924;-64
2021/11/14 18:57:56;;;;;;;;;;;7.20;99.90;;;;;;8427468;23;19935;-64
2021/11/14 19:01:57;;;;;;;;;;;7.30;99.90;;;;;;8411916;28;19931;-63
2021/11/14 19:05:58;;;;;;;;;;;7.40;99.90;;;;;;8414009;28;19920;-64
2021/11/14 19:09:58;;;;;;;;;;;7.30;99.90;;;;;;8406519;28;19912;-63
2021/11/14 19:13:59;;;;;;;;;;;7.40;99.90;;;;;;8417346;28;20400;-64
2021/11/14 19:17:59;;;;;;;;;;;7.30;99.90;;;;;;8389506;28;20374;-64
2021/11/14 19:22:00;;;;;;;;;;;7.30;99.90;;;;;;8374385;28;19924;-64
2021/11/14 19:26:01;;;;;;;;;;;7.30;99.90;;;;;;8372893;28;19920;-64
2021/11/14 19:30:03;;;;;;;;;;;7.40;99.90;;;;;;8385132;28;19974;-64
2021/11/14 19:34:04;;;;;;;;;;;7.30;99.90;;;;;;8405607;28;19913;-64
2021/11/14 19:38:05;;;;;;;;;;;7.30;99.90;;;;;;8405198;28;20453;-64
2021/11/14 19:42:06;;;;;;;;;;;7.50;99.90;;;;;;8388805;28;19919;-63
2021/11/14 19:46:06;;;;;;;;;;;7.40;99.90;;;;;;8401467;28;20436;-64
2021/11/14 19:50:08;;;;;;;;;;;7.30;99.90;;;;;;8409225;28;19916;-64
2021/11/14 19:54:09;;;;;;;;;;;7.40;99.90;;;;;;8404306;28;20329;-64
2021/11/14 19:58:10;;;;;;;;;;;7.30;99.90;;;;;;8414550;28;19920;-63
2021/11/14 20:02:11;;;;;;;;;;;7.50;99.90;;;;;;8392719;28;19912;-64
2021/11/14 20:06:11;;;;;;;;;;;7.50;99.90;;;;;;8406986;28;19916;-64
2021/11/14 20:10:14;;;;;;;;;;;7.50;99.90;;;;;;8406331;28;19961;-64
2021/11/14 20:14:15;;;;;;;;;;;7.50;99.90;;;;;;8400824;28;19927;-63
2021/11/14 20:18:16;;;;;;;;;;;7.60;99.90;;;;;;8407394;28;20390;-63
2021/11/14 20:22:16;;;;;;;;;;;7.60;99.90;;;;;;8409996;28;19923;-63
2021/11/14 20:26:19;;;;;;;;;;;7.50;99.90;;;;;;8374165;28;19920;-63
2021/11/14 20:30:20;;;;;;;;;;;7.50;99.90;;;;;;8395404;28;20406;-64
2021/11/14 20:34:21;;;;;;;;;;;7.50;99.90;;;;;;8382668;28;20588;-63
2021/11/14 20:38:21;;;;;;;;;;;7.50;99.90;;;;;;8390409;28;19916;-63
2021/11/14 20:42:22;;;;;;;;;;;7.50;99.90;;;;;;8417968;28;19916;-63
2021/11/14 20:46:22;;;;;;;;;;;7.50;99.90;;;;;;8419506;28;20328;-64
2021/11/14 20:50:23;;;;;;;;;;;7.50;99.90;;;;;;8372043;28;20497;-63
2021/11/14 20:54:23;;;;;;;;;;;7.50;99.90;;;;;;8394089;28;19923;-63
2021/11/14 20:58:24;;;;;;;;;;;7.50;99.90;;;;;;8398729;28;19920;-64
2021/11/14 21:02:25;;;;;;;;;;;7.50;99.90;;;;;;8403169;28;19922;-63
2021/11/14 21:06:25;;;;;;;;;;;7.60;99.90;;;;;;8404823;28;19919;-64
2021/11/14 21:10:26;;;;;;;;;;;7.50;99.90;;;;;;8398325;28;20397;-64
2021/11/14 21:14:28;;;;;;;;;;;7.40;99.90;;;;;;8377992;28;20297;-63
2021/11/14 21:18:29;;;;;;;;;;;7.40;99.90;;;;;;8399529;28;20302;-63
2021/11/14 21:22:30;;;;;;;;;;;7.30;99.90;;;;;;8390064;28;19999;-64
2021/11/14 21:26:31;;;;;;;;;;;7.20;99.90;;;;;;8389943;28;19915;-63
2021/11/14 21:30:32;;;;;;;;;;;7.30;99.90;;;;;;8388544;28;19916;-63
2021/11/14 21:38:52;;;;;;;;;;;7.30;99.90;;;;;;8402479;28;19927;-63
2021/11/14 21:42:54;;;;;;;;;;;7.20;99.90;;;;;;8391746;28;19913;-63
2021/11/14 21:46:54;;;;;;;;;;;7.20;99.90;;;;;;8420242;28;19908;-64
2021/11/14 21:50:55;;;;;;;;;;;7.10;99.90;;;;;;8407940;28;19927;-63
2021/11/14 21:54:55;;;;;;;;;;;7.10;99.90;;;;;;8425903;28;19912;-63
2021/11/14 21:58:56;;;;;;;;;;;7.10;99.90;;;;;;8403770;28;20007;-63
2021/11/14 22:02:56;;;;;;;;;;;7.10;99.90;;;;;;8394341;28;19944;-63
2021/11/14 22:06:57;;;;;;;;;;;7.10;99.90;;;;;;8398145;28;19963;-63
2021/11/14 22:10:58;;;;;;;;;;;7.00;99.90;;;;;;8397559;28;19912;-63
2021/11/14 22:14:59;;;;;;;;;;;7.10;99.90;;;;;;8379515;28;20448;-64
2021/11/14 22:18:59;;;;;;;;;;;6.90;99.90;;;;;;8397174;28;19912;-63
2021/11/14 22:23:00;;;;;;;;;;;6.80;99.90;;;;;;8407935;28;19920;-65
2021/11/14 22:27:00;;;;;;;;;;;6.70;99.90;;;;;;8404637;28;19913;-64
2021/11/14 22:31:01;;;;;;;;;;;6.80;99.90;;;;;;8413405;28;19940;-65
2021/11/14 22:35:03;;;;;;;;;;;6.80;99.90;;;;;;8381275;28;19993;-64
2021/11/14 22:39:03;;;;;;;;;;;6.70;99.90;;;;;;8396872;28;20409;-64
2021/11/14 22:43:04;;;;;;;;;;;6.60;99.90;;;;;;8397910;28;19952;-64
2021/11/14 22:47:04;;;;;;;;;;;6.60;99.90;;;;;;8396800;28;19916;-65
2021/11/14 22:51:06;;;;;;;;;;;6.60;99.90;;;;;;8378667;28;19912;-64
2021/11/14 22:55:07;;;;;;;;;;;6.60;99.90;;;;;;8396593;28;19908;-64
2021/11/14 22:59:08;;;;;;;;;;;6.50;99.90;;;;;;8396416;28;19923;-64
2021/11/14 23:03:08;;;;;;;;;;;6.50;99.90;;;;;;8396817;28;19909;-64
2021/11/14 23:07:09;;;;;;;;;;;6.50;99.90;;;;;;8400038;28;20386;-64
2021/11/14 23:11:10;;;;;;;;;;;6.30;99.90;;;;;;8395983;28;19940;-65
2021/11/14 23:15:10;;;;;;;;;;;6.20;99.90;;;;;;8395894;28;19916;-64
2021/11/14 23:19:11;;;;;;;;;;;6.30;99.90;;;;;;8395600;28;19912;-65
2021/11/14 23:23:13;;;;;;;;;;;6.20;99.90;;;;;;8398856;28;20010;-64
2021/11/14 23:27:14;;;;;;;;;;;6.20;99.90;;;;;;8421577;28;19913;-64
2021/11/14 23:31:14;;;;;;;;;;;6.10;99.90;;;;;;8395419;28;19915;-64
2021/11/14 23:35:16;;;;;;;;;;;6.00;99.90;;;;;;8397623;28;19916;-65
2021/11/14 23:39:19;;;;;;;;;;;6.00;99.90;;;;;;8394439;28;20550;-64
2021/11/14 23:43:22;;;;;;;;;;;6.00;99.90;;;;;;8395479;28;19947;-64
2021/11/14 23:47:22;;;;;;;;;;;6.10;99.90;;;;;;8376936;28;20319;-64